createdAt,value
2022-08-24T00:00:20.751Z,99916.38
2022-08-24T00:02:48.981Z,99935.94
2022-08-24T00:05:21.469Z,99931.16
2022-08-24T00:07:49.976Z,99910.66
2022-08-24T00:10:18.117Z,99941.88
2022-08-24T00:12:45.933Z,99949.13
2022-08-24T00:15:14.242Z,99938.84
2022-08-24T00:17:42.289Z,99945.91
2022-08-24T00:20:11.682Z,99939.91
2022-08-24T00:22:41.216Z,99939.97
2022-08-24T00:27:43.600Z,99940.41
2022-08-24T00:30:15.426Z,99937.91
2022-08-24T00:32:43.370Z,99939.06
2022-08-24T00:35:12.060Z,99935.72
2022-08-24T00:37:41.444Z,99885.44
2022-08-24T00:40:11.686Z,99936.78
2022-08-24T00:42:41.802Z,99817.72
2022-08-24T00:45:11.085Z,99947.78
2022-08-24T00:47:42.066Z,99947.13
2022-08-24T00:50:19.999Z,99945.59
2022-08-24T00:52:50.837Z,99946.75
2022-08-24T00:55:20.141Z,99936.72
2022-08-24T00:57:49.284Z,99948.09
2022-08-24T01:00:19.108Z,99943.25
2022-08-24T01:02:49.112Z,99929.75
2022-08-24T01:05:17.955Z,99942.53
2022-08-24T01:07:49.365Z,99929.16
2022-08-24T01:10:19.904Z,99948.94
2022-08-24T01:13:00.466Z,99932.88
2022-08-24T01:15:29.129Z,99950.94
2022-08-24T01:18:14.511Z,99958.78
2022-08-24T01:20:44.284Z,99949.72
2022-08-24T01:23:15.008Z,99905.94
2022-08-24T01:25:44.873Z,99952.66
2022-08-24T01:28:14.730Z,99943.97
2022-08-24T01:30:43.436Z,99921.19
2022-08-24T01:33:11.512Z,99941.75
2022-08-24T01:35:40.011Z,99937.56
2022-08-24T01:38:08.860Z,99942.22
2022-08-24T01:40:37.895Z,99921.28
2022-08-24T01:43:07.420Z,99949.97
2022-08-24T01:45:36.371Z,99946.50
2022-08-24T01:48:04.854Z,99952.03
2022-08-24T01:50:32.813Z,99930.63
2022-08-24T01:53:05.474Z,99946.97
2022-08-24T01:55:33.822Z,99949.84
2022-08-24T01:58:01.799Z,99952.59
2022-08-24T02:00:31.164Z,99966.16
2022-08-24T02:02:59.276Z,99953.78
2022-08-24T02:05:27.247Z,99954.81
2022-08-24T02:07:55.825Z,99925.75
2022-08-24T02:10:23.683Z,99942.88
2022-08-24T02:12:57.990Z,99904.34
2022-08-24T02:15:28.498Z,99950.97
2022-08-24T02:17:57.804Z,99953.84
2022-08-24T02:20:25.736Z,99964.59
2022-08-24T02:22:53.842Z,99920.03
2022-08-24T02:25:21.957Z,99964.03
2022-08-24T02:27:50.141Z,99960.56
2022-08-24T02:30:18.160Z,99965.06
2022-08-24T02:32:47.192Z,99960.19
2022-08-24T02:35:16.573Z,99967.31
2022-08-24T02:37:44.579Z,99961.22
2022-08-24T02:40:12.610Z,99960.44
2022-08-24T02:42:40.689Z,99959.66
2022-08-24T02:45:09.628Z,99959.84
2022-08-24T02:47:38.819Z,99958.13
2022-08-24T02:50:07.596Z,99955.97
2022-08-24T02:52:37.203Z,99957.63
2022-08-24T02:55:05.715Z,99963.91
2022-08-24T02:57:34.604Z,99959.66
2022-08-24T03:00:04.968Z,99965.28
2022-08-24T03:02:34.927Z,99967.25
2022-08-24T03:05:03.426Z,99956.81
2022-08-24T03:07:31.357Z,99966.75
2022-08-24T03:10:00.775Z,99955.44
2022-08-24T03:12:30.079Z,99955.78
2022-08-24T03:14:57.988Z,99914.63
2022-08-24T03:17:25.971Z,99967.66
2022-08-24T03:19:53.864Z,99966.78
2022-08-24T03:22:23.792Z,99958.19
2022-08-24T03:24:51.637Z,99966.97
2022-08-24T03:27:20.806Z,99961.97
2022-08-24T03:29:49.104Z,99957.75
2022-08-24T03:32:17.811Z,99956.97
2022-08-24T03:34:45.879Z,99956.19
2022-08-24T03:37:13.869Z,99957.13
2022-08-24T03:39:42.808Z,99959.09
2022-08-24T03:42:10.657Z,99960.91
2022-08-24T03:44:41.309Z,99956.72
2022-08-24T03:47:09.951Z,99953.41
2022-08-24T03:49:38.055Z,99966.75
2022-08-24T03:52:06.095Z,99962.53
2022-08-24T03:54:33.955Z,99967.19
2022-08-24T03:57:01.921Z,99966.47
2022-08-24T03:59:29.896Z,99938.09
2022-08-24T04:01:59.268Z,99958.88
2022-08-24T04:04:27.180Z,99965.16
2022-08-24T04:06:55.087Z,99956.59
2022-08-24T04:09:22.977Z,99961.84
2022-08-24T04:11:52.015Z,99969.06
2022-08-24T04:14:27.600Z,99945.81
2022-08-24T04:16:57.905Z,99965.00
2022-08-24T04:19:27.509Z,99962.50
2022-08-24T04:21:57.483Z,99970.63
2022-08-24T04:24:25.568Z,99973.47
2022-08-24T04:26:53.505Z,99965.72
2022-08-24T04:29:21.488Z,99971.81
2022-08-24T04:31:49.700Z,99975.38
2022-08-24T04:34:18.556Z,99966.56
2022-08-24T04:36:48.083Z,99971.91
2022-08-24T04:39:16.126Z,99958.19
2022-08-24T04:41:44.176Z,99966.97
2022-08-24T04:44:12.267Z,99937.59
2022-08-24T04:46:40.426Z,99965.25
2022-08-24T04:49:08.555Z,99968.00
2022-08-24T04:51:36.975Z,99978.56
2022-08-24T04:54:07.933Z,99979.34
2022-08-24T04:56:36.107Z,99978.34
2022-08-24T04:59:04.803Z,99961.97
2022-08-24T05:01:33.751Z,99978.97
2022-08-24T05:04:01.734Z,99981.53
2022-08-24T05:06:30.654Z,99993.09
2022-08-24T05:08:58.598Z,99975.50
2022-08-24T05:11:29.036Z,99942.16
2022-08-24T05:13:57.353Z,99990.56
2022-08-24T05:16:25.880Z,100005.69
2022-08-24T05:18:54.705Z,100002.03
2022-08-24T05:21:23.617Z,100001.16
2022-08-24T05:23:51.628Z,99997.41
2022-08-24T05:26:21.186Z,100002.56
2022-08-24T05:28:58.248Z,99980.13
2022-08-24T05:31:27.676Z,100000.38
2022-08-24T05:34:05.800Z,99973.66
2022-08-24T05:36:34.771Z,99969.34
2022-08-24T05:39:55.246Z,100006.19
2022-08-24T05:42:23.142Z,99997.59
2022-08-24T05:44:52.489Z,100002.47
2022-08-24T05:47:20.303Z,100005.59
2022-08-24T05:49:48.445Z,100007.72
2022-08-24T05:52:16.454Z,100012.56
2022-08-24T05:54:44.465Z,100013.78
2022-08-24T05:57:12.765Z,100015.06
2022-08-24T05:59:41.021Z,100015.63
2022-08-24T06:02:10.542Z,100016.13
2022-08-24T06:04:38.900Z,100016.63
2022-08-24T06:07:10.139Z,100017.19
2022-08-24T06:09:38.049Z,100026.34
2022-08-24T06:12:06.522Z,99967.50
2022-08-24T06:14:34.767Z,100025.09
2022-08-24T06:17:04.186Z,100024.28
2022-08-24T06:19:33.720Z,100020.84
2022-08-24T06:22:02.045Z,100034.50
2022-08-24T06:27:23.502Z,100007.25
2022-08-24T06:32:50.297Z,99674.16
2022-08-24T06:35:20.401Z,100035.44
2022-08-24T06:37:48.227Z,100026.91
2022-08-24T06:40:16.616Z,100040.75
2022-08-24T06:42:44.541Z,100047.22
2022-08-24T06:45:12.668Z,100027.94
2022-08-24T06:47:40.637Z,100041.13
2022-08-24T06:50:09.565Z,100033.50
2022-08-24T06:52:40.659Z,100040.66
2022-08-24T06:55:09.239Z,100034.53
2022-08-24T06:57:37.138Z,100065.06
2022-08-24T07:00:06.402Z,100023.56
2022-08-24T07:02:34.875Z,100043.00
2022-08-24T07:05:03.227Z,100036.41
2022-08-24T07:07:31.133Z,100032.28
2022-08-24T07:10:00.931Z,100041.31
2022-08-24T07:12:28.860Z,100047.59
2022-08-24T07:14:57.270Z,100045.16
2022-08-24T07:17:25.208Z,100025.44
2022-08-24T07:19:53.261Z,100048.06
2022-08-24T07:22:21.536Z,100048.44
2022-08-24T07:24:49.662Z,100019.31
2022-08-24T07:27:21.233Z,100052.78
2022-08-24T07:30:00.120Z,100059.69
2022-08-24T07:32:37.154Z,100054.22
2022-08-24T07:35:05.846Z,100056.94
2022-08-24T07:37:41.516Z,100060.00
2022-08-24T07:40:10.639Z,100062.13
2022-08-24T07:42:40.931Z,100063.59
2022-08-24T07:45:09.340Z,100056.78
2022-08-24T07:47:41.631Z,100062.91
2022-08-24T07:50:11.697Z,100027.91
2022-08-24T07:52:39.583Z,100053.72
2022-08-24T07:55:08.248Z,100069.06
2022-08-24T07:57:39.497Z,100066.41
2022-08-24T08:00:10.667Z,100074.22
2022-08-24T08:02:38.589Z,100076.34
2022-08-24T08:05:07.400Z,100074.03
2022-08-24T08:07:35.296Z,100074.38
2022-08-24T08:10:03.319Z,100077.47
2022-08-24T08:12:31.221Z,100068.66
2022-08-24T08:14:59.164Z,100060.31
2022-08-24T08:17:28.427Z,100072.00
2022-08-24T08:19:56.453Z,100056.34
2022-08-24T08:22:41.483Z,100083.38
2022-08-24T08:25:09.798Z,100077.75
2022-08-24T08:27:38.026Z,100077.38
2022-08-24T08:30:06.968Z,100072.13
2022-08-24T08:32:36.331Z,100079.75
2022-08-24T08:35:04.896Z,100078.63
2022-08-24T08:37:33.070Z,100081.41
2022-08-24T08:40:01.123Z,100075.41
2022-08-24T08:42:58.054Z,100085.56
2022-08-24T08:45:31.877Z,100048.81
2022-08-24T08:48:24.994Z,100069.56
2022-08-24T08:51:16.448Z,100059.88
2022-08-24T08:54:10.059Z,100072.31
2022-08-24T08:56:42.970Z,100069.78
2022-08-24T08:59:14.040Z,100078.06
2022-08-24T09:01:47.902Z,100074.00
2022-08-24T09:04:46.172Z,100072.25
2022-08-24T09:07:22.491Z,100060.28
2022-08-24T09:10:08.994Z,100075.72
2022-08-24T09:12:42.530Z,100074.44
2022-08-24T09:15:37.694Z,100073.69
2022-08-24T09:18:17.006Z,100066.22
2022-08-24T09:21:18.290Z,100066.25
2022-08-24T09:23:50.193Z,100050.97
2022-08-24T09:26:22.031Z,100060.63
2022-08-24T09:28:53.309Z,100057.50
2022-08-24T09:31:44.128Z,100048.22
2022-08-24T09:34:34.320Z,100062.28
2022-08-24T09:37:08.156Z,100048.66
2022-08-24T09:39:39.881Z,100057.00
2022-08-24T09:42:41.590Z,100052.69
2022-08-24T09:45:37.644Z,100061.78
2022-08-24T09:48:32.084Z,100055.91
2022-08-24T09:51:26.374Z,100033.22
2022-08-24T09:54:31.768Z,100059.88
2022-08-24T09:57:20.074Z,99971.41
2022-08-24T10:00:10.273Z,100052.63
2022-08-24T10:02:47.367Z,99931.53
2022-08-24T10:05:23.945Z,99927.19
2022-08-24T10:07:55.382Z,99940.06
2022-08-24T10:10:31.485Z,99731.03
2022-08-24T10:13:05.365Z,99996.00
2022-08-24T10:15:37.613Z,99963.94
2022-08-24T10:18:22.837Z,100000.75
2022-08-24T10:21:04.554Z,99949.53
2022-08-24T10:23:42.458Z,100034.41
2022-08-24T10:26:14.848Z,99849.75
2022-08-24T10:28:54.566Z,100027.81
2022-08-24T10:31:24.651Z,99914.63
2022-08-24T10:33:59.446Z,99964.97
2022-08-24T10:37:01.029Z,99893.38
2022-08-24T10:40:02.245Z,99954.22
2022-08-24T10:43:31.412Z,100017.84
2022-08-24T10:46:31.018Z,99852.84
2022-08-24T10:49:42.167Z,100010.69
2022-08-24T10:52:44.455Z,99896.22
2022-08-24T10:55:17.683Z,99910.97
2022-08-24T10:57:50.750Z,99919.56
2022-08-24T11:00:22.844Z,99835.06
2022-08-24T11:03:09.607Z,99799.63
2022-08-24T11:05:41.267Z,99845.31
2022-08-24T11:08:10.259Z,99843.78
2022-08-24T11:10:40.976Z,99948.81
2022-08-24T11:13:16.416Z,100015.31
2022-08-24T11:15:48.995Z,99801.75
2022-08-24T11:18:19.337Z,99819.28
2022-08-24T11:20:49.737Z,99961.50
2022-08-24T11:23:21.710Z,99869.50
2022-08-24T11:25:56.460Z,100026.06
2022-08-24T11:28:30.094Z,99936.25
2022-08-24T11:30:58.982Z,99811.41
2022-08-24T11:33:33.985Z,99962.63
2022-08-24T11:36:02.887Z,99709.22
2022-08-24T11:38:32.800Z,99690.81
2022-08-24T11:41:04.554Z,99791.41
2022-08-24T11:43:42.581Z,99962.00
2022-08-24T11:46:22.438Z,99901.28
2022-08-24T11:48:57.905Z,99925.91
2022-08-24T11:51:32.677Z,99829.13
2022-08-24T11:54:04.706Z,99725.06
2022-08-24T11:56:36.165Z,99643.22
2022-08-24T11:59:07.018Z,99918.63
2022-08-24T12:01:42.907Z,99534.72
2022-08-24T12:04:27.404Z,99897.13
2022-08-24T12:06:59.263Z,99990.59
2022-08-24T12:09:38.429Z,99755.34
2022-08-24T12:12:13.883Z,99940.72
2022-08-24T12:14:43.261Z,99870.44
2022-08-24T12:17:14.991Z,99950.78
2022-08-24T12:19:48.594Z,99669.53
2022-08-24T12:22:17.116Z,99854.59
2022-08-24T12:24:47.418Z,99611.34
2022-08-24T12:27:18.424Z,99726.41
2022-08-24T12:29:48.605Z,99864.06
2022-08-24T12:32:29.987Z,99602.69
2022-08-24T12:35:02.085Z,99739.22
2022-08-24T12:37:32.963Z,99854.09
2022-08-24T12:40:06.874Z,99868.69
2022-08-24T12:42:40.056Z,99659.41
2022-08-24T12:45:11.407Z,99785.47
2022-08-24T12:47:47.330Z,100017.28
2022-08-24T12:50:25.230Z,99558.44
2022-08-24T12:53:45.513Z,99820.34
2022-08-24T12:56:40.703Z,99858.72
2022-08-24T12:59:17.339Z,99783.06
2022-08-24T13:01:48.214Z,99513.69
2022-08-24T13:04:20.328Z,99702.19
2022-08-24T13:06:54.152Z,99759.25
2022-08-24T13:09:54.151Z,99815.09
2022-08-24T13:13:39.603Z,99929.75
2022-08-24T13:16:12.639Z,99945.03
2022-08-24T13:18:54.861Z,99928.91
2022-08-24T13:21:47.712Z,99932.00
2022-08-24T13:24:59.239Z,99701.22
2022-08-24T13:28:33.723Z,99510.50
2022-08-24T13:31:22.196Z,99826.38
2022-08-24T13:33:54.513Z,99840.06
2022-08-24T13:36:45.107Z,99939.47
2022-08-24T13:39:32.326Z,99587.22
2022-08-24T13:42:11.469Z,99850.22
2022-08-24T13:45:01.314Z,99837.13
2022-08-24T13:47:32.208Z,99918.16
2022-08-24T13:50:06.320Z,99756.19
2022-08-24T13:52:41.516Z,99677.19
2022-08-24T13:55:29.670Z,99914.34
2022-08-24T13:58:11.501Z,99770.44
2022-08-24T14:00:42.977Z,99651.66
2022-08-24T14:03:16.118Z,99790.06
2022-08-24T14:05:47.161Z,99796.50
2022-08-24T14:08:30.494Z,99901.25
2022-08-24T14:11:03.390Z,99898.53
2022-08-24T14:13:38.694Z,99655.16
2022-08-24T14:16:25.702Z,99724.72
2022-08-24T14:19:00.174Z,99757.41
2022-08-24T14:21:37.397Z,99747.88
2022-08-24T14:24:06.486Z,99818.63
2022-08-24T14:26:56.056Z,99883.44
2022-08-24T14:29:43.555Z,99733.34
2022-08-24T14:32:36.670Z,99881.19
2022-08-24T14:35:36.510Z,99875.97
2022-08-24T14:38:30.900Z,99830.94
2022-08-24T14:41:08.741Z,99592.91
2022-08-24T14:44:07.164Z,99694.16
2022-08-24T14:46:40.221Z,99729.56
2022-08-24T14:49:14.615Z,99875.22
2022-08-24T14:51:57.814Z,99707.09
2022-08-24T14:54:33.905Z,99865.66
2022-08-24T14:57:16.364Z,99796.31
2022-08-24T14:59:49.700Z,99891.84
2022-08-24T15:02:50.530Z,99789.56
2022-08-24T15:05:27.992Z,99590.53
2022-08-24T15:07:57.883Z,99725.41
2022-08-24T15:10:27.045Z,99833.38
2022-08-24T15:13:02.840Z,99693.69
2022-08-24T15:15:34.324Z,99855.63
2022-08-24T15:18:06.817Z,99729.25
2022-08-24T15:20:57.469Z,99885.75
2022-08-24T15:23:28.048Z,99680.19
2022-08-24T15:25:56.901Z,99709.41
2022-08-24T15:28:27.199Z,99721.41
2022-08-24T15:30:56.532Z,99625.41
2022-08-24T15:33:26.181Z,99759.19
2022-08-24T15:36:06.922Z,99835.44
2022-08-24T15:38:36.576Z,99769.09
2022-08-24T15:41:06.577Z,99586.81
2022-08-24T15:43:35.043Z,99872.88
2022-08-24T15:46:03.219Z,99756.06
2022-08-24T15:48:33.037Z,99851.94
2022-08-24T15:51:01.654Z,99760.31
2022-08-24T15:53:35.307Z,99765.28
2022-08-24T15:56:35.798Z,99847.44
2022-08-24T15:59:08.612Z,99741.66
2022-08-24T16:01:54.045Z,99851.00
2022-08-24T16:04:44.602Z,99669.56
2022-08-24T16:07:17.294Z,99699.69
2022-08-24T16:09:45.265Z,99393.34
2022-08-24T16:12:14.050Z,99783.09
2022-08-24T16:14:47.327Z,99559.78
2022-08-24T16:17:37.407Z,99480.72
2022-08-24T16:20:10.631Z,99749.06
2022-08-24T16:22:40.683Z,99539.28
2022-08-24T16:25:24.648Z,99658.25
2022-08-24T16:28:00.462Z,99796.50
2022-08-24T16:30:41.383Z,99854.78
2022-08-24T16:33:10.381Z,99758.88
2022-08-24T16:36:00.928Z,99702.38
2022-08-24T16:38:46.615Z,99676.50
2022-08-24T16:41:19.579Z,99411.94
2022-08-24T16:43:47.633Z,99730.44
2022-08-24T16:46:20.007Z,99869.16
2022-08-24T16:48:47.906Z,99689.50
2022-08-24T16:51:17.176Z,99793.19
2022-08-24T16:53:45.099Z,99904.44
2022-08-24T16:56:16.480Z,99748.47
2022-08-24T16:58:44.876Z,99840.28
2022-08-24T17:01:14.077Z,99674.38
2022-08-24T17:03:42.670Z,99787.44
2022-08-24T17:06:12.490Z,99787.06
2022-08-24T17:08:41.863Z,99687.41
2022-08-24T17:11:09.825Z,99776.84
2022-08-24T17:13:49.490Z,99733.53
2022-08-24T17:16:18.324Z,99642.25
2022-08-24T17:18:46.365Z,99842.44
2022-08-24T17:21:17.358Z,99804.00
2022-08-24T17:23:47.531Z,99378.84
2022-08-24T17:26:20.178Z,99854.22
2022-08-24T17:28:50.181Z,99667.50
2022-08-24T17:31:31.172Z,99851.25
2022-08-24T17:34:00.550Z,99403.13
2022-08-24T17:36:34.961Z,99547.31
2022-08-24T17:39:13.455Z,99718.44
2022-08-24T17:41:43.672Z,99866.06
2022-08-24T17:44:19.756Z,99682.09
2022-08-24T17:47:12.590Z,99646.06
2022-08-24T17:50:06.459Z,99874.84
2022-08-24T17:52:41.185Z,99582.06
2022-08-24T17:55:26.762Z,99492.03
2022-08-24T17:57:57.588Z,99746.50
2022-08-24T18:00:26.974Z,99905.06
2022-08-24T18:03:07.454Z,99464.75
2022-08-24T18:05:42.293Z,99607.44
2022-08-24T18:08:12.690Z,99725.06
2022-08-24T18:10:51.347Z,99659.56
2022-08-24T18:13:30.211Z,99485.00
2022-08-24T18:16:05.219Z,99832.31
2022-08-24T18:18:41.251Z,99660.47
2022-08-24T18:21:16.469Z,99623.44
2022-08-24T18:23:54.780Z,99619.25
2022-08-24T18:26:34.551Z,100002.41
2022-08-24T18:29:13.001Z,99785.41
2022-08-24T18:31:44.961Z,99520.38
2022-08-24T18:34:26.263Z,99693.38
2022-08-24T18:36:58.167Z,99833.97
2022-08-24T18:39:26.731Z,99725.56
2022-08-24T18:41:59.921Z,99981.28
2022-08-24T18:44:31.721Z,99648.34
2022-08-24T18:47:02.319Z,99706.38
2022-08-24T18:49:30.897Z,99527.75
2022-08-24T18:52:01.523Z,99793.06
2022-08-24T18:54:51.051Z,99923.88
2022-08-24T18:57:31.174Z,99657.19
2022-08-24T19:00:10.563Z,99678.34
2022-08-24T19:02:42.367Z,99955.34
2022-08-24T19:05:21.884Z,99939.41
2022-08-24T19:08:03.986Z,99821.28
2022-08-24T19:10:40.619Z,100031.69
2022-08-24T19:13:21.041Z,99933.28
2022-08-24T19:15:50.843Z,99951.38
2022-08-24T19:18:20.433Z,99930.59
2022-08-24T19:20:50.123Z,99927.03
2022-08-24T19:23:20.068Z,99920.00
2022-08-24T19:25:48.187Z,99928.56
2022-08-24T19:28:17.739Z,99929.41
2022-08-24T19:30:46.963Z,99926.81
2022-08-24T19:33:16.202Z,99920.41
2022-08-24T19:35:44.077Z,99922.09
2022-08-24T19:38:13.064Z,99933.03
2022-08-24T19:40:47.590Z,99932.72
2022-08-24T19:43:17.553Z,99909.31
2022-08-24T19:46:05.618Z,99900.19
2022-08-24T19:48:34.448Z,99927.66
2022-08-24T19:51:02.962Z,99901.22
2022-08-24T19:53:31.649Z,99934.38
2022-08-24T19:56:00.671Z,99927.09
2022-08-24T19:58:31.533Z,99932.41
2022-08-24T20:01:03.912Z,99935.63
2022-08-24T20:03:31.927Z,99919.78
2022-08-24T20:05:59.859Z,99912.06
2022-08-24T20:08:27.759Z,99930.13
2022-08-24T20:10:58.927Z,99925.50
2022-08-24T20:13:26.926Z,99926.75
2022-08-24T20:15:56.429Z,99928.13
2022-08-24T20:18:26.377Z,99922.91
2022-08-24T20:20:54.232Z,99928.41
2022-08-24T20:23:22.270Z,99935.78
2022-08-24T20:25:53.297Z,99942.41
2022-08-24T20:28:30.068Z,99938.50
2022-08-24T20:31:00.442Z,99945.88
2022-08-24T20:33:28.868Z,99947.97
2022-08-24T20:35:56.709Z,99936.00
2022-08-24T20:38:24.637Z,99940.78
2022-08-24T20:40:53.028Z,99946.69
2022-08-24T20:43:20.937Z,99944.38
2022-08-24T20:45:50.832Z,99942.16
2022-08-24T20:48:20.952Z,99953.31
2022-08-24T20:50:49.408Z,99935.22
2022-08-24T20:53:17.333Z,99941.53
2022-08-24T20:55:45.654Z,99933.00
2022-08-24T20:58:13.594Z,99942.28
2022-08-24T21:00:44.391Z,99951.63
2022-08-24T21:03:15.987Z,99940.22
2022-08-24T21:05:45.457Z,99917.38
2022-08-24T21:08:13.672Z,99951.75
2022-08-24T21:10:42.229Z,99910.84
2022-08-24T21:13:10.440Z,99954.28
2022-08-24T21:15:38.633Z,99955.53
2022-08-24T21:18:06.839Z,99956.78
2022-08-24T21:20:35.841Z,99955.38
2022-08-24T21:23:06.313Z,99949.66
2022-08-24T21:25:34.174Z,99949.88
2022-08-24T21:28:03.001Z,99938.09
2022-08-24T21:30:31.431Z,99949.38
2022-08-24T21:33:24.389Z,99948.16
2022-08-24T21:35:53.867Z,99938.84
2022-08-24T21:38:25.546Z,99952.16
2022-08-24T21:40:53.732Z,99952.38
2022-08-24T21:43:21.703Z,99942.59
2022-08-24T21:45:50.147Z,99957.41
2022-08-24T21:48:18.232Z,99942.22
2022-08-24T21:50:46.254Z,99964.00
2022-08-24T21:53:22.255Z,99962.50
2022-08-24T21:55:57.723Z,99935.47
2022-08-24T21:58:26.527Z,99935.22
2022-08-24T22:00:58.838Z,99960.59
2022-08-24T22:03:31.719Z,99957.56
2022-08-24T22:06:08.553Z,99954.72
2022-08-24T22:08:37.906Z,99955.25
2022-08-24T22:11:07.251Z,99953.41
2022-08-24T22:13:35.542Z,99947.69
2022-08-24T22:16:03.852Z,99949.25
2022-08-24T22:18:31.966Z,99952.34
2022-08-24T22:21:01.079Z,99951.22
2022-08-24T22:23:29.050Z,99953.44
2022-08-24T22:25:56.971Z,99950.00
2022-08-24T22:28:26.225Z,99945.34
2022-08-24T22:30:54.200Z,99933.84
2022-08-24T22:33:22.777Z,99951.88
2022-08-24T22:35:51.801Z,99949.94
2022-08-24T22:38:19.750Z,99958.72
2022-08-24T22:40:47.786Z,99974.63
2022-08-24T22:43:15.869Z,99953.34
2022-08-24T22:45:46.348Z,99957.25
2022-08-24T22:48:14.714Z,99934.59
2022-08-24T22:50:43.932Z,99956.03
2022-08-24T22:53:12.010Z,99940.47
2022-08-24T22:55:39.971Z,99951.88
2022-08-24T22:58:07.898Z,99955.69
2022-08-24T23:00:35.762Z,99956.63
2022-08-24T23:03:05.410Z,99952.44
2022-08-24T23:05:33.639Z,99946.19
2022-08-24T23:08:01.911Z,99951.84
2022-08-24T23:10:29.777Z,99948.31
2022-08-24T23:12:59.001Z,99915.50
2022-08-24T23:15:26.824Z,99951.34
2022-08-24T23:17:54.661Z,99946.94
2022-08-24T23:22:53.643Z,99945.81
2022-08-24T23:25:21.535Z,99950.72
2022-08-24T23:27:50.216Z,99949.22
2022-08-24T23:30:18.191Z,99953.88
2022-08-24T23:32:46.285Z,99953.25
2022-08-24T23:35:14.190Z,99954.69
2022-08-24T23:37:42.225Z,99935.13
2022-08-24T23:40:12.506Z,99947.13
2022-08-24T23:42:41.452Z,99943.94
2022-08-24T23:45:12.193Z,99952.00
2022-08-24T23:47:40.876Z,99944.28
2022-08-24T23:50:10.889Z,99947.06
2022-08-24T23:52:39.907Z,99949.88
2022-08-24T23:55:19.976Z,99948.50
2022-08-24T23:57:51.454Z,99955.06
